Time;durP1;ratioP1;P1;durP2;ratioP2;P2;SDS_P1;SDS_P2;PMS_P1;PMS_P2;Temp;Humidity;BMP_temperature;BMP_pressure;BME280_temperature;BME280_humidity;BME280_pressure;Samples;Min_cycle;Max_cycle;Signal;HPM_P1;HPM_P2
2023/01/13 00:01:58;;;;;;;0.60;0.60;;;9.30;99.90;;;;;;5048511;28;20024;-88
2023/01/13 00:04:24;;;;;;;3.15;0.63;;;9.30;99.90;;;;;;5047504;28;20025;-86
2023/01/13 00:06:49;;;;;;;0.50;0.50;;;9.30;99.90;;;;;;5047355;28;20112;-86
2023/01/13 00:09:16;;;;;;;2.42;0.70;;;9.30;99.90;;;;;;5050881;28;20421;-85
2023/01/13 00:11:41;;;;;;;0.60;0.57;;;9.30;99.90;;;;;;5050910;28;20033;-87
2023/01/13 00:14:07;;;;;;;0.80;0.80;;;9.30;99.90;;;;;;5046423;28;20032;-85
2023/01/13 00:16:32;;;;;;;0.60;0.60;;;9.30;99.90;;;;;;5046085;28;20025;-87
2023/01/13 00:18:58;;;;;;;0.88;0.60;;;9.30;99.90;;;;;;5053899;28;20173;-87
2023/01/13 00:21:24;;;;;;;1.48;0.60;;;9.20;99.90;;;;;;5053082;28;20023;-87
2023/01/13 00:23:52;;;;;;;0.95;0.50;;;9.20;99.90;;;;;;5052317;28;20457;-86
2023/01/13 00:26:24;;;;;;;0.55;0.55;;;9.20;99.90;;;;;;5046329;28;20029;-86
2023/01/13 00:28:54;;;;;;;0.73;0.70;;;9.20;99.90;;;;;;5048894;28;20138;-87
2023/01/13 00:31:21;;;;;;;0.40;0.40;;;9.20;99.90;;;;;;5049818;28;20079;-89
2023/01/13 00:33:50;;;;;;;1.25;0.65;;;9.10;99.90;;;;;;5049084;28;20048;-88
2023/01/13 00:36:17;;;;;;;3.83;0.80;;;9.10;99.90;;;;;;5050578;28;20413;-88
2023/01/13 00:38:43;;;;;;;2.78;0.60;;;9.10;99.90;;;;;;5055135;28;20276;-86
2023/01/13 00:41:20;;;;;;;0.52;0.52;;;9.10;99.90;;;;;;5054140;28;20032;-86
2023/01/13 00:43:47;;;;;;;0.65;0.65;;;9.20;99.90;;;;;;5049798;28;20032;-87
2023/01/13 00:46:15;;;;;;;1.27;0.60;;;9.20;99.90;;;;;;5051542;28;20115;-88
2023/01/13 00:48:40;;;;;;;1.02;0.60;;;9.20;99.90;;;;;;5050404;28;20103;-87
2023/01/13 00:51:17;;;;;;;5.32;1.02;;;9.20;99.90;;;;;;5054167;28;20457;-86
2023/01/13 00:53:47;;;;;;;0.50;0.50;;;9.20;99.90;;;;;;5051513;28;20087;-86
2023/01/13 00:56:17;;;;;;;0.60;0.60;;;9.20;99.90;;;;;;5050078;28;20021;-89
2023/01/13 00:58:44;;;;;;;0.52;0.52;;;9.20;99.90;;;;;;5050318;28;20155;-87
2023/01/13 01:01:15;;;;;;;3.35;0.70;;;9.20;99.90;;;;;;5051340;28;20024;-85
2023/01/13 01:03:40;;;;;;;0.75;0.70;;;9.20;99.90;;;;;;5053236;28;20468;-86
2023/01/13 01:06:18;;;;;;;0.60;0.60;;;9.30;99.90;;;;;;5061502;28;20016;-88
2023/01/13 01:08:44;;;;;;;1.23;0.68;;;9.30;99.90;;;;;;5045706;28;20043;-86
2023/01/13 01:11:15;;;;;;;0.50;0.50;;;9.30;99.90;;;;;;5050556;28;20066;-86
2023/01/13 01:13:41;;;;;;;0.50;0.50;;;9.30;99.90;;;;;;5048596;28;20359;-86
2023/01/13 01:16:10;;;;;;;4.28;0.80;;;9.30;99.90;;;;;;5045304;28;20025;-89
2023/01/13 01:18:38;;;;;;;0.55;0.55;;;9.30;99.90;;;;;;5052247;28;20017;-88
2023/01/13 01:21:05;;;;;;;4.10;0.50;;;9.30;99.90;;;;;;5050672;28;20058;-88
2023/01/13 01:23:32;;;;;;;0.43;0.43;;;9.40;99.90;;;;;;5051927;28;20021;-87
2023/01/13 01:26:13;;;;;;;1.70;0.70;;;9.40;99.90;;;;;;5050693;28;20037;-88
2023/01/13 01:28:38;;;;;;;0.50;0.50;;;9.40;99.90;;;;;;5049391;28;20608;-87
2023/01/13 01:31:08;;;;;;;1.45;0.50;;;9.40;99.90;;;;;;5049751;28;20052;-88
2023/01/13 01:33:34;;;;;;;3.13;0.80;;;9.40;99.90;;;;;;5049055;28;20510;-85
2023/01/13 01:36:01;;;;;;;0.55;0.55;;;9.40;99.90;;;;;;5054675;28;20024;-87
2023/01/13 01:38:26;;;;;;;0.60;0.60;;;9.40;99.90;;;;;;5053387;28;20476;-85
2023/01/13 01:40:52;;;;;;;1.38;0.55;;;9.40;99.90;;;;;;5048373;28;20037;-91
2023/01/13 01:44:05;;;;;;;0.50;0.50;;;9.40;99.90;;;;;;5049578;28;20025;-88
2023/01/13 01:46:07;;;;;;;0.50;0.50;;;9.40;99.90;;;;;;5051063;28;20033;-88
2023/01/13 01:48:38;;;;;;;0.80;0.52;;;9.40;99.90;;;;;;5048723;28;20059;-86
2023/01/13 01:51:07;;;;;;;0.93;0.57;;;9.40;99.90;;;;;;5046035;28;20103;-85
2023/01/13 01:53:33;;;;;;;5.40;0.60;;;9.40;99.90;;;;;;5049529;28;20044;-86
2023/01/13 01:56:01;;;;;;;1.75;0.57;;;9.40;99.90;;;;;;5051236;28;20025;-86
2023/01/13 01:58:33;;;;;;;0.93;0.60;;;9.40;99.90;;;;;;5045019;28;20416;-85
2023/01/13 02:00:59;;;;;;;0.50;0.50;;;9.40;99.90;;;;;;5045147;28;20071;-83
2023/01/13 02:03:24;;;;;;;0.80;0.50;;;9.40;99.90;;;;;;5054698;28;20032;-84
2023/01/13 02:05:51;;;;;;;3.13;0.75;;;9.40;99.90;;;;;;5045888;28;20033;-83
2023/01/13 02:08:18;;;;;;;1.95;0.70;;;9.40;99.90;;;;;;5046828;28;20025;-83
2023/01/13 02:10:49;;;;;;;1.33;0.50;;;9.40;99.90;;;;;;5039089;28;20164;-82
2023/01/13 02:13:15;;;;;;;1.40;0.70;;;9.40;99.90;;;;;;5046124;28;20040;-83
2023/01/13 02:15:54;;;;;;;2.13;0.70;;;9.40;99.90;;;;;;5047945;28;20458;-82
2023/01/13 02:18:41;;;;;;;1.10;0.75;;;9.40;99.90;;;;;;5046079;28;20025;-82
2023/01/13 02:21:40;;;;;;;0.60;0.60;;;9.40;99.90;;;;;;5046699;28;20069;-82
2023/01/13 02:27:08;;;;;;;0.60;0.60;;;9.40;99.90;;;;;;5043028;28;20083;-83
2023/01/13 02:33:04;;;;;;;1.23;0.50;;;9.40;99.90;;;;;;5050090;28;20529;-83
2023/01/13 02:36:20;;;;;;;0.60;0.60;;;9.30;99.90;;;;;;5048485;28;20013;-83
2023/01/13 02:38:50;;;;;;;0.80;0.80;;;9.40;99.90;;;;;;5009970;28;20025;-82
2023/01/13 02:44:14;;;;;;;0.50;0.50;;;9.50;99.90;;;;;;5036796;28;20143;-82
2023/01/13 02:47:02;;;;;;;0.95;0.60;;;9.50;99.90;;;;;;5049255;28;20056;-83
2023/01/13 02:49:35;;;;;;;2.00;0.52;;;9.50;99.90;;;;;;5047276;28;20477;-84
2023/01/13 02:52:20;;;;;;;2.63;0.80;;;9.50;99.90;;;;;;5048347;28;20119;-83
2023/01/13 02:54:52;;;;;;;0.43;0.43;;;9.50;99.90;;;;;;5049102;28;20033;-82
2023/01/13 02:57:20;;;;;;;0.85;0.50;;;9.50;99.90;;;;;;5039642;28;20123;-85
2023/01/13 02:59:47;;;;;;;1.45;0.60;;;9.50;99.90;;;;;;5044250;28;20384;-83
2023/01/13 03:02:17;;;;;;;2.30;0.60;;;9.40;99.90;;;;;;5047622;28;20417;-83
2023/01/13 03:04:45;;;;;;;0.55;0.50;;;9.50;99.90;;;;;;5051489;28;20064;-83
2023/01/13 03:07:42;;;;;;;0.85;0.50;;;9.50;99.90;;;;;;5048415;28;20487;-83
2023/01/13 03:10:21;;;;;;;0.50;0.50;;;9.50;99.90;;;;;;5049698;28;20017;-85
2023/01/13 03:13:01;;;;;;;0.40;0.40;;;9.50;99.90;;;;;;5043972;28;20123;-84
2023/01/13 03:15:51;;;;;;;1.40;0.50;;;9.60;99.90;;;;;;5045729;28;20033;-82
2023/01/13 03:18:42;;;;;;;0.50;0.50;;;9.60;99.90;;;;;;5044238;28;20029;-83
2023/01/13 03:21:36;;;;;;;2.20;0.60;;;9.60;99.90;;;;;;5044505;28;20052;-82
2023/01/13 03:24:16;;;;;;;0.50;0.50;;;9.70;99.90;;;;;;5024797;28;20116;-83
2023/01/13 03:27:14;;;;;;;0.70;0.70;;;9.60;99.90;;;;;;5045221;28;20036;-82
2023/01/13 03:29:53;;;;;;;0.50;0.50;;;9.60;99.90;;;;;;5051962;28;20074;-82
2023/01/13 03:32:28;;;;;;;0.82;0.50;;;9.50;99.90;;;;;;5048197;28;20032;-84
2023/01/13 03:35:41;;;;;;;1.88;0.40;;;9.50;99.90;;;;;;5045334;28;20534;-82
2023/01/13 03:38:24;;;;;;;1.13;0.60;;;9.50;99.90;;;;;;5050164;28;20025;-87
2023/01/13 03:41:05;;;;;;;1.00;0.60;;;9.50;99.90;;;;;;5042489;28;20324;-83
2023/01/13 03:46:57;;;;;;;0.40;0.40;;;9.50;99.90;;;;;;5040642;28;20422;-82
2023/01/13 03:49:30;;;;;;;0.40;0.40;;;9.50;99.90;;;;;;5048700;28;20021;-83
2023/01/13 03:52:00;;;;;;;0.50;0.50;;;9.50;99.90;;;;;;5048948;28;20428;-83
2023/01/13 03:54:29;;;;;;;0.65;0.50;;;9.60;99.90;;;;;;5047672;28;20373;-82
2023/01/13 03:57:03;;;;;;;0.52;0.52;;;9.60;99.90;;;;;;5043518;28;20033;-84
2023/01/13 03:59:37;;;;;;;3.08;0.50;;;9.60;99.90;;;;;;5047833;28;20025;-84
2023/01/13 04:02:15;;;;;;;0.47;0.47;;;9.60;99.90;;;;;;5046568;28;20025;-84
2023/01/13 04:04:56;;;;;;;0.40;0.40;;;9.60;99.90;;;;;;5046518;28;21103;-83
2023/01/13 04:07:53;;;;;;;0.40;0.40;;;9.70;99.90;;;;;;5047584;28;20025;-83
2023/01/13 04:10:26;;;;;;;0.40;0.40;;;9.70;99.90;;;;;;5047680;28;20120;-83
2023/01/13 04:13:06;;;;;;;7.25;0.60;;;9.80;99.90;;;;;;5047478;28;20128;-84
2023/01/13 04:15:36;;;;;;;0.55;0.40;;;9.80;99.90;;;;;;5043983;28;20021;-84
2023/01/13 04:18:14;;;;;;;1.55;0.60;;;9.70;99.90;;;;;;5047210;28;20032;-83
2023/01/13 04:20:41;;;;;;;3.05;1.05;;;9.60;99.90;;;;;;5044237;28;20033;-84
2023/01/13 04:23:07;;;;;;;0.40;0.40;;;9.50;99.90;;;;;;5047744;28;20469;-84
2023/01/13 04:25:33;;;;;;;0.40;0.40;;;9.50;99.90;;;;;;5047031;28;20381;-85
2023/01/13 04:28:00;;;;;;;0.50;0.50;;;9.50;99.90;;;;;;5047190;28;20116;-84
2023/01/13 04:30:25;;;;;;;0.50;0.50;;;9.50;99.90;;;;;;5049308;28;20013;-85
2023/01/13 04:32:51;;;;;;;1.17;0.40;;;9.50;99.90;;;;;;5046460;28;20043;-85
2023/01/13 04:35:17;;;;;;;0.95;0.60;;;9.50;99.90;;;;;;5045797;28;20028;-84
2023/01/13 04:37:42;;;;;;;1.05;0.68;;;9.40;99.90;;;;;;5043916;28;20044;-87
2023/01/13 04:40:08;;;;;;;0.52;0.52;;;9.40;99.90;;;;;;5051157;28;20123;-84
2023/01/13 04:42:34;;;;;;;0.40;0.40;;;9.40;99.90;;;;;;5047527;28;20393;-87
2023/01/13 04:44:59;;;;;;;1.13;0.55;;;9.30;99.90;;;;;;5052618;28;20021;-89
2023/01/13 04:47:25;;;;;;;3.70;0.70;;;9.20;99.90;;;;;;5051506;28;20055;-85
2023/01/13 04:50:28;;;;;;;0.95;0.70;;;9.20;99.90;;;;;;5070278;28;20390;-88
2023/01/13 04:52:54;;;;;;;1.75;0.60;;;9.10;99.90;;;;;;5053774;28;20405;-86
2023/01/13 04:55:22;;;;;;;1.60;0.95;;;9.00;99.90;;;;;;5052595;28;20111;-88
2023/01/13 04:57:47;;;;;;;0.57;0.57;;;9.00;99.90;;;;;;5057474;28;20028;-86
2023/01/13 05:00:15;;;;;;;4.63;0.88;;;8.90;99.90;;;;;;5049266;28;20025;-89
2023/01/13 05:02:41;;;;;;;3.78;0.90;;;8.90;99.90;;;;;;5051469;28;20051;-86
2023/01/13 05:05:07;;;;;;;1.30;0.73;;;8.80;99.90;;;;;;5043520;28;20123;-87
2023/01/13 05:07:33;;;;;;;2.05;0.77;;;8.70;99.90;;;;;;5045999;28;20060;-86
2023/01/13 05:09:58;;;;;;;13.55;0.98;;;8.70;99.90;;;;;;5055142;28;20061;-87
2023/01/13 05:17:56;;;;;;;2.42;0.77;;;8.70;99.90;;;;;;5049326;28;20381;-85
2023/01/13 05:20:22;;;;;;;1.02;0.68;;;8.60;99.90;;;;;;5043899;28;20029;-86
2023/01/13 05:25:34;;;;;;;2.47;0.95;;;8.60;99.90;;;;;;5043932;28;20377;-87
2023/01/13 05:28:00;;;;;;;0.70;0.70;;;8.70;99.90;;;;;;5040372;28;20676;-85
2023/01/13 05:30:28;;;;;;;4.95;1.05;;;8.60;99.90;;;;;;5047626;28;20056;-85
2023/01/13 05:32:54;;;;;;;1.92;0.50;;;8.50;99.90;;;;;;5042317;28;20025;-88
2023/01/13 05:35:20;;;;;;;1.77;0.60;;;8.50;99.90;;;;;;5047781;28;20112;-86
2023/01/13 05:37:46;;;;;;;1.67;0.55;;;8.40;99.90;;;;;;5048734;28;20048;-86
2023/01/13 05:43:21;;;;;;;1.45;0.60;;;8.40;99.90;;;;;;5039916;28;20492;-87
2023/01/13 05:45:53;;;;;;;1.40;0.80;;;8.40;99.90;;;;;;5040561;28;20037;-88
2023/01/13 05:48:20;;;;;;;2.55;0.80;;;8.30;99.90;;;;;;5038888;28;20061;-87
2023/01/13 05:50:48;;;;;;;1.55;0.65;;;8.30;99.90;;;;;;5047567;28;20036;-84
2023/01/13 05:53:14;;;;;;;1.38;0.60;;;8.30;99.90;;;;;;5047792;28;20025;-88
2023/01/13 05:55:41;;;;;;;2.83;0.70;;;8.30;99.90;;;;;;5053628;28;20409;-85
2023/01/13 05:58:08;;;;;;;1.55;0.93;;;8.30;99.90;;;;;;5047273;28;20021;-88
2023/01/13 06:00:34;;;;;;;0.90;0.70;;;8.30;99.90;;;;;;5042086;28;20020;-88
2023/01/13 06:03:00;;;;;;;5.85;0.80;;;8.20;99.90;;;;;;5033552;28;20090;-91
2023/01/13 06:05:25;;;;;;;3.20;0.95;;;8.20;99.90;;;;;;5036561;28;20032;-87
2023/01/13 06:07:54;;;;;;;3.50;0.90;;;8.20;99.90;;;;;;5037362;28;20029;-91
2023/01/13 06:10:23;;;;;;;3.03;1.10;;;8.20;99.90;;;;;;5038768;28;20102;-84
2023/01/13 06:12:49;;;;;;;2.10;0.85;;;8.20;99.90;;;;;;5043588;28;20037;-89
2023/01/13 06:15:14;;;;;;;2.35;1.25;;;8.30;99.90;;;;;;5034417;28;20040;-87
2023/01/13 06:17:40;;;;;;;2.95;0.90;;;8.20;99.90;;;;;;5041399;28;20060;-86
2023/01/13 06:20:07;;;;;;;6.72;1.95;;;8.20;99.90;;;;;;5039665;28;20078;-85
2023/01/13 06:22:38;;;;;;;7.80;2.15;;;8.10;99.90;;;;;;5043899;28;20032;-87
2023/01/13 06:25:10;;;;;;;6.68;2.00;;;8.10;99.90;;;;;;5043080;28;20103;-85
2023/01/13 06:27:39;;;;;;;5.57;1.60;;;8.10;99.90;;;;;;5032111;28;20032;-83
2023/01/13 06:30:05;;;;;;;2.53;1.90;;;8.10;99.90;;;;;;5033382;28;20373;-89
2023/01/13 06:32:37;;;;;;;3.33;1.10;;;8.00;99.90;;;;;;5032275;28;20456;-89
2023/01/13 06:35:08;;;;;;;3.78;1.10;;;8.00;99.90;;;;;;5041362;28;20021;-87
2023/01/13 06:37:35;;;;;;;3.55;0.88;;;8.00;99.90;;;;;;5028475;28;20028;-88
2023/01/13 06:40:05;;;;;;;4.38;0.93;;;8.00;99.90;;;;;;5022316;28;20119;-88
2023/01/13 06:45:18;;;;;;;4.53;1.20;;;7.90;99.90;;;;;;5037447;28;20067;-85
2023/01/13 06:47:44;;;;;;;4.22;1.27;;;7.90;99.90;;;;;;5033009;28;20026;-86
2023/01/13 06:50:10;;;;;;;9.00;1.73;;;7.90;99.90;;;;;;5039919;28;20048;-87
2023/01/13 06:52:35;;;;;;;6.80;1.40;;;7.80;99.90;;;;;;5036385;28;20056;-86
2023/01/13 06:55:01;;;;;;;3.75;1.20;;;7.80;99.90;;;;;;5040332;28;20090;-85
2023/01/13 06:57:27;;;;;;;2.85;1.00;;;7.80;99.90;;;;;;5031302;28;20068;-85
2023/01/13 06:59:52;;;;;;;1.65;1.00;;;7.80;99.90;;;;;;5036645;28;20037;-87
2023/01/13 07:02:18;;;;;;;4.57;1.20;;;7.80;99.90;;;;;;5038741;28;20175;-87
2023/01/13 07:04:45;;;;;;;4.53;0.80;;;7.90;99.90;;;;;;5034350;28;20382;-88
2023/01/13 07:07:12;;;;;;;2.95;1.45;;;7.80;99.90;;;;;;5035297;28;20032;-85
2023/01/13 07:09:38;;;;;;;3.03;0.98;;;7.90;99.90;;;;;;5028765;28;20037;-86
2023/01/13 07:12:04;;;;;;;3.58;1.00;;;7.80;99.90;;;;;;5027830;28;20031;-86
2023/01/13 07:17:14;;;;;;;5.47;0.95;;;7.90;99.90;;;;;;5026451;28;20075;-87
2023/01/13 07:19:39;;;;;;;11.38;1.20;;;7.90;99.90;;;;;;5037705;28;20021;-85
2023/01/13 07:22:05;;;;;;;6.38;1.88;;;7.90;99.90;;;;;;5041006;28;20094;-86
2023/01/13 07:24:31;;;;;;;2.40;1.30;;;7.90;99.90;;;;;;5030118;28;20043;-85
2023/01/13 07:26:56;;;;;;;2.35;0.80;;;7.90;99.90;;;;;;5035357;28;20067;-85
2023/01/13 07:29:22;;;;;;;3.50;1.33;;;7.90;99.90;;;;;;5039155;28;20119;-86
2023/01/13 07:31:47;;;;;;;3.72;1.40;;;8.00;99.90;;;;;;5040604;28;20503;-88
2023/01/13 07:34:13;;;;;;;6.00;1.63;;;8.00;99.90;;;;;;5041128;28;20509;-86
2023/01/13 07:36:39;;;;;;;2.58;1.00;;;8.00;99.90;;;;;;5041225;28;20726;-85
2023/01/13 07:39:07;;;;;;;1.40;0.90;;;7.90;99.90;;;;;;5038695;28;20040;-84
2023/01/13 07:44:17;;;;;;;4.25;2.00;;;7.90;99.90;;;;;;5041871;28;20043;-86
2023/01/13 07:46:43;;;;;;;11.93;2.50;;;7.90;99.90;;;;;;5043867;28;20020;-86
2023/01/13 07:49:09;;;;;;;3.60;1.40;;;7.90;99.90;;;;;;5044141;28;20060;-85
2023/01/13 07:51:36;;;;;;;3.05;1.10;;;8.00;99.90;;;;;;5045983;28;20878;-85
2023/01/13 07:54:02;;;;;;;4.82;1.00;;;7.90;99.90;;;;;;5035096;28;20117;-85
2023/01/13 07:56:27;;;;;;;4.80;0.80;;;7.80;99.90;;;;;;5026088;28;20119;-86
2023/01/13 07:58:53;;;;;;;3.83;0.88;;;7.80;99.90;;;;;;5035083;28;20036;-86
2023/01/13 08:01:19;;;;;;;5.05;0.90;;;7.80;99.90;;;;;;5036264;28;20531;-86
2023/01/13 08:03:45;;;;;;;1.48;0.80;;;7.80;99.90;;;;;;5030818;28;20489;-85
2023/01/13 08:06:14;;;;;;;1.95;0.75;;;7.70;99.90;;;;;;5032799;28;20025;-85
2023/01/13 08:08:39;;;;;;;1.45;1.00;;;7.60;99.90;;;;;;5035239;28;20048;-85
2023/01/13 08:11:06;;;;;;;0.75;0.75;;;7.60;99.90;;;;;;5037302;28;20022;-85
2023/01/13 08:13:32;;;;;;;4.55;1.13;;;7.60;99.90;;;;;;5040235;28;20039;-86
2023/01/13 08:16:06;;;;;;;6.50;0.90;;;7.50;99.90;;;;;;5039438;28;20033;-85
2023/01/13 08:18:32;;;;;;;5.72;1.35;;;7.50;99.90;;;;;;5029445;28;20029;-84
2023/01/13 08:21:03;;;;;;;1.13;0.82;;;7.50;99.90;;;;;;5034573;28;20094;-85
2023/01/13 08:23:28;;;;;;;3.20;0.93;;;7.40;99.90;;;;;;5041925;28;20262;-85
2023/01/13 08:25:58;;;;;;;3.55;1.10;;;7.40;99.90;;;;;;5040745;28;20036;-85
2023/01/13 08:28:24;;;;;;;4.57;0.90;;;7.40;99.90;;;;;;5037582;28;20553;-85
2023/01/13 08:30:51;;;;;;;4.22;1.20;;;7.40;99.90;;;;;;5045828;28;20033;-85
2023/01/13 08:33:17;;;;;;;3.42;1.05;;;7.30;99.90;;;;;;5042449;28;20506;-85
2023/01/13 08:35:42;;;;;;;3.97;1.25;;;7.30;99.90;;;;;;5034540;28;20021;-84
2023/01/13 08:38:08;;;;;;;5.28;1.00;;;7.20;99.90;;;;;;5042651;28;20036;-88
2023/01/13 08:40:34;;;;;;;4.93;1.20;;;7.20;99.90;;;;;;5037610;28;20044;-85
2023/01/13 08:43:00;;;;;;;1.33;0.90;;;7.20;99.90;;;;;;5039108;28;20026;-84
2023/01/13 08:45:26;;;;;;;3.42;1.00;;;7.20;99.90;;;;;;5040599;28;20021;-85
2023/01/13 08:47:52;;;;;;;3.75;1.00;;;7.20;99.90;;;;;;5035803;28;20029;-85
2023/01/13 08:50:18;;;;;;;3.13;1.00;;;7.20;99.90;;;;;;5035636;28;20199;-85
2023/01/13 08:52:43;;;;;;;4.57;1.08;;;7.20;99.90;;;;;;5041328;28;20032;-88
2023/01/13 08:55:10;;;;;;;4.03;1.27;;;7.20;99.90;;;;;;5040255;28;20324;-85
2023/01/13 08:57:36;;;;;;;2.88;1.10;;;7.20;99.90;;;;;;5046993;28;20036;-85
2023/01/13 09:00:04;;;;;;;1.58;0.88;;;7.20;99.90;;;;;;5047811;28;20126;-85
2023/01/13 09:02:30;;;;;;;2.72;0.90;;;7.20;99.90;;;;;;5044215;28;20028;-85
2023/01/13 09:04:55;;;;;;;7.10;1.40;;;7.20;99.90;;;;;;5046258;28;20025;-86
2023/01/13 09:07:21;;;;;;;7.75;1.38;;;7.20;99.90;;;;;;5043149;28;20029;-85
2023/01/13 09:09:47;;;;;;;5.22;1.08;;;7.20;99.90;;;;;;5047132;28;20029;-84
2023/01/13 09:14:59;;;;;;;;;;;7.10;99.90;;;;;;5038353;28;20036;-85
2023/01/13 09:17:26;;;;;;;6.35;1.58;;;7.20;99.90;;;;;;5038260;28;19905;-84
2023/01/13 09:19:52;;;;;;;12.80;1.55;;;7.20;99.90;;;;;;5040812;28;20370;-86
2023/01/13 09:22:18;;;;;;;6.97;1.38;;;7.20;99.90;;;;;;5041668;28;20029;-84
2023/01/13 09:24:44;;;;;;;8.18;2.55;;;7.20;99.90;;;;;;5035897;28;20036;-86
2023/01/13 09:27:14;;;;;;;6.57;1.38;;;7.20;99.90;;;;;;5047484;28;20339;-84
2023/01/13 09:29:40;;;;;;;7.15;1.55;;;7.20;99.90;;;;;;5047211;28;20086;-84
2023/01/13 09:32:13;;;;;;;3.65;1.40;;;7.20;99.90;;;;;;5047187;28;20029;-84
2023/01/13 09:37:23;;;;;;;19.40;2.60;;;7.20;99.90;;;;;;5049798;28;20539;-84
2023/01/13 09:39:49;;;;;;;8.20;1.83;;;7.20;99.90;;;;;;5046024;28;20033;-86
2023/01/13 09:45:07;;;;;;;13.05;1.48;;;7.20;99.90;;;;;;5051608;28;20060;-88
2023/01/13 09:48:06;;;;;;;6.03;1.60;;;7.20;99.90;;;;;;5050599;28;20408;-85
2023/01/13 09:50:53;;;;;;;8.20;1.50;;;7.30;99.90;;;;;;5046345;28;20048;-85
2023/01/13 09:53:26;;;;;;;18.10;2.00;;;7.40;99.90;;;;;;5051111;28;20377;-85
2023/01/13 09:55:52;;;;;;;20.50;2.47;;;7.40;99.90;;;;;;5051005;28;20075;-87
2023/01/13 09:58:19;;;;;;;9.40;1.95;;;7.50;99.90;;;;;;5049909;28;20053;-86
2023/01/13 10:01:10;;;;;;;16.67;2.92;;;7.50;99.90;;;;;;5050470;28;20024;-85
2023/01/13 10:03:36;;;;;;;11.55;1.50;;;7.50;99.90;;;;;;5044503;28;20017;-87
2023/01/13 10:06:15;;;;;;;7.95;2.20;;;7.60;99.90;;;;;;5042731;28;20494;-89
2023/01/13 10:08:43;;;;;;;4.32;1.73;;;7.70;99.90;;;;;;5042250;28;20063;-86
2023/01/13 10:14:44;;;;;;;16.40;2.72;;;7.80;99.90;;;;;;5044365;28;20036;-85
2023/01/13 10:17:16;;;;;;;14.43;2.03;;;7.80;99.90;;;;;;5034215;28;20170;-86
2023/01/13 10:19:44;;;;;;;7.00;1.45;;;7.90;99.90;;;;;;5046022;28;20028;-86
2023/01/13 10:22:51;;;;;;;8.25;1.70;;;7.90;99.90;;;;;;5049668;28;20297;-86
2023/01/13 10:25:26;;;;;;;12.57;2.00;;;8.00;99.90;;;;;;5037588;28;20321;-87
2023/01/13 10:27:54;;;;;;;11.23;2.40;;;8.00;99.90;;;;;;5046203;28;20035;-86
2023/01/13 10:30:29;;;;;;;12.85;1.90;;;8.00;99.90;;;;;;5040722;28;20120;-86
2023/01/13 10:33:05;;;;;;;;;;;8.00;99.90;;;;;;5040441;28;20340;-86
2023/01/13 10:35:54;;;;;;;18.42;2.22;;;8.00;99.90;;;;;;5041166;28;20011;-87
2023/01/13 10:38:26;;;;;;;8.57;1.40;;;8.00;99.90;;;;;;5037759;28;20466;-86
2023/01/13 10:41:01;;;;;;;13.70;2.08;;;8.00;99.90;;;;;;5035996;28;20505;-86
2023/01/13 10:43:28;;;;;;;8.95;1.63;;;8.00;99.90;;;;;;5038635;28;20021;-87
2023/01/13 10:46:06;;;;;;;9.18;1.88;;;8.00;99.90;;;;;;5043283;28;20033;-85
2023/01/13 10:48:38;;;;;;;13.30;1.98;;;8.00;99.90;;;;;;5028505;28;21026;-87
2023/01/13 10:51:25;;;;;;;11.57;1.92;;;8.00;99.90;;;;;;5032760;28;20013;-88
2023/01/13 10:53:59;;;;;;;14.85;3.30;;;8.00;99.90;;;;;;5031289;28;20033;-86
2023/01/13 10:56:31;;;;;;;10.57;2.05;;;8.00;99.90;;;;;;5035079;28;20408;-85
2023/01/13 10:59:28;;;;;;;9.02;1.90;;;8.00;99.90;;;;;;5037580;28;20041;-87
2023/01/13 11:02:02;;;;;;;10.90;2.20;;;8.10;99.90;;;;;;5043767;28;20470;-88
2023/01/13 11:04:36;;;;;;;11.27;2.67;;;8.10;99.90;;;;;;5036995;28;20032;-88
2023/01/13 11:07:04;;;;;;;5.68;2.28;;;8.10;99.90;;;;;;5040021;28;20052;-91
2023/01/13 11:09:31;;;;;;;7.72;2.28;;;8.10;99.90;;;;;;5036160;28;20041;-89
2023/01/13 11:11:59;;;;;;;9.98;1.65;;;8.00;99.90;;;;;;5041861;28;20021;-87
2023/01/13 11:14:40;;;;;;;16.05;2.53;;;8.10;99.90;;;;;;5037573;28;20029;-85
2023/01/13 11:17:31;;;;;;;15.90;2.60;;;8.10;99.90;;;;;;5027787;28;20104;-89
2023/01/13 11:20:32;;;;;;;8.48;2.42;;;8.10;99.90;;;;;;5035517;28;20219;-86
2023/01/13 11:23:04;;;;;;;10.80;2.25;;;8.20;99.90;;;;;;5036079;28;20037;-86
2023/01/13 11:25:43;;;;;;;10.63;3.90;;;8.20;99.90;;;;;;5028872;28;20021;-87
2023/01/13 11:28:24;;;;;;;15.57;1.85;;;8.20;99.90;;;;;;5041844;28;20458;-87
2023/01/13 11:31:16;;;;;;;7.10;1.80;;;8.20;99.90;;;;;;5028666;28;20032;-85
2023/01/13 11:34:09;;;;;;;14.43;1.85;;;8.20;99.90;;;;;;5028205;28;20037;-87
2023/01/13 11:36:42;;;;;;;20.13;2.35;;;8.20;99.90;;;;;;5021180;28;20033;-86
2023/01/13 11:39:37;;;;;;;12.90;1.75;;;8.20;99.90;;;;;;5036583;28;20562;-84
2023/01/13 11:42:22;;;;;;;11.85;2.10;;;8.20;99.90;;;;;;5033200;28;20021;-85
2023/01/13 11:44:59;;;;;;;9.80;1.70;;;8.20;99.90;;;;;;5032104;28;20105;-89
2023/01/13 11:47:26;;;;;;;10.80;2.15;;;8.20;99.90;;;;;;5020155;28;20041;-92
2023/01/13 11:49:52;;;;;;;9.55;1.80;;;8.20;99.90;;;;;;5028344;28;20045;-86
2023/01/13 11:52:27;;;;;;;22.58;2.42;;;8.30;99.90;;;;;;5026409;28;20017;-85
2023/01/13 11:55:13;;;;;;;7.60;1.73;;;8.30;99.90;;;;;;5025396;28;20017;-85
2023/01/13 11:57:51;;;;;;;8.85;2.95;;;8.30;99.90;;;;;;5031549;28;20329;-86
2023/01/13 12:00:35;;;;;;;10.73;1.92;;;8.30;99.90;;;;;;5034034;28;20025;-85
2023/01/13 12:03:22;;;;;;;11.75;2.47;;;8.10;99.90;;;;;;5025633;28;20028;-87
2023/01/13 12:06:07;;;;;;;9.98;2.15;;;8.20;99.90;;;;;;5027446;28;20462;-87
2023/01/13 12:08:51;;;;;;;25.58;2.30;;;8.20;99.90;;;;;;5030878;28;20028;-86
2023/01/13 12:11:23;;;;;;;5.85;1.70;;;8.30;99.90;;;;;;5019166;28;20029;-87
2023/01/13 12:14:21;;;;;;;12.45;2.15;;;8.30;99.90;;;;;;5030979;28;20021;-87
2023/01/13 12:16:49;;;;;;;11.60;2.47;;;8.40;99.90;;;;;;5030256;28;20033;-86
2023/01/13 12:19:26;;;;;;;8.93;1.88;;;8.50;99.90;;;;;;5033631;28;20050;-85
2023/01/13 12:22:04;;;;;;;18.10;2.42;;;8.50;99.90;;;;;;5023182;28;20469;-86
2023/01/13 12:24:42;;;;;;;10.20;1.98;;;8.50;99.90;;;;;;5022972;28;20108;-89
2023/01/13 12:27:38;;;;;;;14.95;2.30;;;8.50;99.90;;;;;;5022791;28;20022;-87
2023/01/13 12:30:19;;;;;;;14.02;3.30;;;8.50;99.90;;;;;;5025809;28;20033;-85
2023/01/13 12:32:48;;;;;;;5.00;1.75;;;8.50;99.90;;;;;;5032615;28;20517;-88
2023/01/13 12:35:19;;;;;;;16.85;2.30;;;8.60;99.90;;;;;;5033160;28;20032;-87
2023/01/13 12:37:48;;;;;;;8.98;2.75;;;8.50;99.90;;;;;;5035666;28;20395;-85
2023/01/13 12:40:50;;;;;;;18.88;2.17;;;8.50;99.90;;;;;;5030555;28;20437;-89
2023/01/13 12:46:18;;;;;;;6.57;1.90;;;8.50;99.90;;;;;;5024952;28;20040;-85
2023/01/13 12:48:55;;;;;;;9.40;1.77;;;8.50;99.90;;;;;;5032993;28;20424;-86
2023/01/13 12:51:32;;;;;;;14.73;2.22;;;8.40;99.90;;;;;;5038067;28;20044;-88
2023/01/13 12:53:58;;;;;;;10.88;1.63;;;8.50;99.90;;;;;;5028940;28;20025;-86
2023/01/13 12:56:53;;;;;;;14.15;2.50;;;8.40;99.90;;;;;;5033989;28;20029;-87
2023/01/13 12:59:19;;;;;;;7.85;2.20;;;8.40;99.90;;;;;;5031754;28;20094;-89
2023/01/13 13:02:24;;;;;;;9.05;1.88;;;8.40;99.90;;;;;;5035631;28;20029;-86
2023/01/13 13:05:10;;;;;;;8.88;2.08;;;8.50;99.90;;;;;;5002052;28;20486;-87
2023/01/13 13:08:02;;;;;;;12.63;2.65;;;8.50;99.90;;;;;;5025680;28;20040;-87
2023/01/13 13:10:30;;;;;;;9.85;1.83;;;8.50;99.90;;;;;;5037911;28;20037;-86
2023/01/13 13:13:16;;;;;;;18.60;3.83;;;8.50;99.90;;;;;;5039627;28;20022;-88
2023/01/13 13:16:03;;;;;;;10.65;2.38;;;8.50;99.90;;;;;;5034507;28;20025;-86
2023/01/13 13:18:29;;;;;;;6.70;1.77;;;8.40;99.90;;;;;;5041354;28;20421;-87
2023/01/13 13:20:58;;;;;;;8.48;2.15;;;8.40;99.90;;;;;;5037081;28;20075;-85
2023/01/13 13:23:46;;;;;;;12.15;2.28;;;8.30;99.90;;;;;;5037776;28;20021;-86
2023/01/13 13:26:18;;;;;;;10.10;1.77;;;8.40;99.90;;;;;;5040812;28;20125;-87
2023/01/13 13:29:22;;;;;;;16.80;2.40;;;8.40;99.90;;;;;;5040379;28;20056;-87
2023/01/13 13:31:56;;;;;;;11.50;2.00;;;8.40;99.90;;;;;;5024581;28;20035;-87
2023/01/13 13:34:33;;;;;;;14.75;2.85;;;8.40;99.90;;;;;;5038334;28;20024;-86
2023/01/13 13:37:14;;;;;;;14.07;2.03;;;8.40;99.90;;;;;;5043964;28;20034;-85
2023/01/13 13:48:33;;;;;;;7.93;2.42;;;8.10;99.90;;;;;;5039449;28;20038;-87
2023/01/13 13:51:04;;;;;;;9.02;2.05;;;8.20;99.90;;;;;;5041354;28;20045;-87
2023/01/13 13:53:39;;;;;;;10.30;2.75;;;8.20;99.90;;;;;;5037628;28;20033;-87
2023/01/13 13:56:19;;;;;;;6.78;1.73;;;8.20;99.90;;;;;;5042319;28;20044;-87
2023/01/13 13:58:46;;;;;;;9.90;2.10;;;8.10;99.90;;;;;;5035982;28;20087;-87
2023/01/13 14:01:27;;;;;;;11.80;2.58;;;8.00;99.90;;;;;;5020012;28;20029;-87
2023/01/13 14:04:13;;;;;;;8.05;1.73;;;8.00;99.90;;;;;;5032358;28;20022;-88
2023/01/13 14:06:49;;;;;;;11.52;1.90;;;7.90;99.90;;;;;;5034491;28;20525;-86
2023/01/13 14:09:16;;;;;;;15.88;2.25;;;7.90;99.90;;;;;;5032359;28;20496;-86
2023/01/13 14:11:42;;;;;;;10.07;1.95;;;7.90;99.90;;;;;;5039867;28;20025;-85
2023/01/13 14:14:16;;;;;;;9.88;2.10;;;7.90;99.90;;;;;;5040734;28;20018;-86
2023/01/13 14:16:41;;;;;;;8.80;2.20;;;7.90;99.90;;;;;;5032055;28;20068;-86
2023/01/13 14:19:34;;;;;;;13.57;2.10;;;7.80;99.90;;;;;;5032337;28;20033;-85